Terminal Aerodrome Forecast
Issued by NWS

Home | Current Version | Previous Version | Text Only | Print | Product List | Glossary On
Versions: 1 2 3 4 5 6 7 8 9 10 11 12 13 14 15 16 17 18
000
FTUS43 KGRR 050500
TAFLAN
TAF
KLAN 050530Z 0506/0606 04007KT P6SM BKN150
     FM051100 08009KT 6SM -RA OVC090
     FM051300 09010KT 4SM -SHRA BR OVC035
     FM051600 09009KT 3SM -SHRA BR OVC012
     FM051800 09009KT 2SM -RA BR OVC008=

USA.gov is the U.S. government's official web portal to all federal, state and local government web resources and services.